sensor_id;sensor_type;location;lat;lon;timestamp;P1;durP1;ratioP1;P2;durP2;ratioP2
11986;SDS011;6053;51.382;6.768;2022-08-03T00:00:33;0.20;;;0.20;;
11986;SDS011;6053;51.382;6.768;2022-08-03T00:03:01;0.38;;;0.30;;
11986;SDS011;6053;51.382;6.768;2022-08-03T00:05:30;0.20;;;0.20;;
11986;SDS011;6053;51.382;6.768;2022-08-03T00:07:59;0.60;;;0.27;;
11986;SDS011;6053;51.382;6.768;2022-08-03T00:10:31;0.30;;;0.30;;
11986;SDS011;6053;51.382;6.768;2022-08-03T00:12:59;0.30;;;0.30;;
11986;SDS011;6053;51.382;6.768;2022-08-03T00:15:27;0.20;;;0.20;;
11986;SDS011;6053;51.382;6.768;2022-08-03T00:17:55;0.30;;;0.30;;
11986;SDS011;6053;51.382;6.768;2022-08-03T00:20:24;0.27;;;0.27;;
11986;SDS011;6053;51.382;6.768;2022-08-03T00:22:52;0.30;;;0.30;;
11986;SDS011;6053;51.382;6.768;2022-08-03T00:25:20;0.30;;;0.30;;
11986;SDS011;6053;51.382;6.768;2022-08-03T00:27:50;0.30;;;0.30;;
11986;SDS011;6053;51.382;6.768;2022-08-03T00:30:18;0.20;;;0.20;;
11986;SDS011;6053;51.382;6.768;2022-08-03T00:32:52;0.30;;;0.30;;
11986;SDS011;6053;51.382;6.768;2022-08-03T00:35:20;0.30;;;0.20;;
11986;SDS011;6053;51.382;6.768;2022-08-03T00:38:08;0.30;;;0.30;;
11986;SDS011;6053;51.382;6.768;2022-08-03T00:40:36;0.30;;;0.30;;
11986;SDS011;6053;51.382;6.768;2022-08-03T00:43:07;0.40;;;0.28;;
11986;SDS011;6053;51.382;6.768;2022-08-03T00:45:36;0.22;;;0.22;;
11986;SDS011;6053;51.382;6.768;2022-08-03T00:48:07;0.20;;;0.20;;
11986;SDS011;6053;51.382;6.768;2022-08-03T00:50:57;0.38;;;0.22;;
11986;SDS011;6053;51.382;6.768;2022-08-03T00:53:25;0.30;;;0.30;;
11986;SDS011;6053;51.382;6.768;2022-08-03T00:55:54;0.30;;;0.30;;
11986;SDS011;6053;51.382;6.768;2022-08-03T00:58:24;0.30;;;0.30;;
11986;SDS011;6053;51.382;6.768;2022-08-03T01:00:53;0.30;;;0.30;;
11986;SDS011;6053;51.382;6.768;2022-08-03T01:03:21;0.90;;;0.32;;
11986;SDS011;6053;51.382;6.768;2022-08-03T01:05:51;0.30;;;0.28;;
11986;SDS011;6053;51.382;6.768;2022-08-03T01:08:27;0.30;;;0.30;;
11986;SDS011;6053;51.382;6.768;2022-08-03T01:11:09;0.22;;;0.22;;
11986;SDS011;6053;51.382;6.768;2022-08-03T01:13:46;0.68;;;0.30;;
11986;SDS011;6053;51.382;6.768;2022-08-03T01:16:43;0.30;;;0.30;;
11986;SDS011;6053;51.382;6.768;2022-08-03T01:19:28;0.38;;;0.35;;
11986;SDS011;6053;51.382;6.768;2022-08-03T01:22:12;0.30;;;0.30;;
11986;SDS011;6053;51.382;6.768;2022-08-03T01:25:08;0.70;;;0.40;;
11986;SDS011;6053;51.382;6.768;2022-08-03T01:27:53;0.20;;;0.20;;
11986;SDS011;6053;51.382;6.768;2022-08-03T01:30:37;0.30;;;0.30;;
11986;SDS011;6053;51.382;6.768;2022-08-03T01:33:11;0.57;;;0.50;;
11986;SDS011;6053;51.382;6.768;2022-08-03T01:35:45;0.40;;;0.40;;
11986;SDS011;6053;51.382;6.768;2022-08-03T01:38:21;0.30;;;0.30;;
11986;SDS011;6053;51.382;6.768;2022-08-03T01:40:53;0.40;;;0.40;;
11986;SDS011;6053;51.382;6.768;2022-08-03T01:43:24;0.32;;;0.32;;
11986;SDS011;6053;51.382;6.768;2022-08-03T01:46:16;0.30;;;0.30;;
11986;SDS011;6053;51.382;6.768;2022-08-03T01:48:46;0.30;;;0.30;;
11986;SDS011;6053;51.382;6.768;2022-08-03T01:51:17;0.50;;;0.50;;
11986;SDS011;6053;51.382;6.768;2022-08-03T01:53:47;0.30;;;0.30;;
11986;SDS011;6053;51.382;6.768;2022-08-03T01:56:16;0.30;;;0.30;;
11986;SDS011;6053;51.382;6.768;2022-08-03T01:58:46;0.30;;;0.30;;
11986;SDS011;6053;51.382;6.768;2022-08-03T02:01:17;0.30;;;0.30;;
11986;SDS011;6053;51.382;6.768;2022-08-03T02:03:48;0.93;;;0.40;;
11986;SDS011;6053;51.382;6.768;2022-08-03T02:06:26;0.33;;;0.30;;
11986;SDS011;6053;51.382;6.768;2022-08-03T02:09:19;0.32;;;0.32;;
11986;SDS011;6053;51.382;6.768;2022-08-03T02:11:49;0.20;;;0.20;;
11986;SDS011;6053;51.382;6.768;2022-08-03T02:14:19;0.40;;;0.40;;
11986;SDS011;6053;51.382;6.768;2022-08-03T02:16:51;0.30;;;0.30;;
11986;SDS011;6053;51.382;6.768;2022-08-03T02:19:20;0.40;;;0.40;;
11986;SDS011;6053;51.382;6.768;2022-08-03T02:21:49;0.47;;;0.32;;
11986;SDS011;6053;51.382;6.768;2022-08-03T02:24:26;0.25;;;0.25;;
11986;SDS011;6053;51.382;6.768;2022-08-03T02:26:55;0.30;;;0.30;;
11986;SDS011;6053;51.382;6.768;2022-08-03T02:29:24;0.30;;;0.30;;
11986;SDS011;6053;51.382;6.768;2022-08-03T02:32:07;0.35;;;0.35;;
11986;SDS011;6053;51.382;6.768;2022-08-03T02:34:39;0.40;;;0.40;;
11986;SDS011;6053;51.382;6.768;2022-08-03T02:37:12;0.20;;;0.20;;
11986;SDS011;6053;51.382;6.768;2022-08-03T02:39:44;0.40;;;0.40;;
11986;SDS011;6053;51.382;6.768;2022-08-03T02:42:17;0.70;;;0.40;;
11986;SDS011;6053;51.382;6.768;2022-08-03T02:44:50;0.30;;;0.23;;
11986;SDS011;6053;51.382;6.768;2022-08-03T02:47:24;0.30;;;0.30;;
11986;SDS011;6053;51.382;6.768;2022-08-03T02:50:14;0.50;;;0.50;;
11986;SDS011;6053;51.382;6.768;2022-08-03T02:52:43;0.30;;;0.30;;
11986;SDS011;6053;51.382;6.768;2022-08-03T02:55:14;0.40;;;0.40;;
11986;SDS011;6053;51.382;6.768;2022-08-03T02:57:46;0.50;;;0.50;;
11986;SDS011;6053;51.382;6.768;2022-08-03T03:00:15;0.35;;;0.35;;
11986;SDS011;6053;51.382;6.768;2022-08-03T03:02:54;0.40;;;0.40;;
11986;SDS011;6053;51.382;6.768;2022-08-03T03:05:26;0.40;;;0.40;;
11986;SDS011;6053;51.382;6.768;2022-08-03T03:08:16;1.13;;;0.38;;
11986;SDS011;6053;51.382;6.768;2022-08-03T03:10:51;0.40;;;0.40;;
11986;SDS011;6053;51.382;6.768;2022-08-03T03:13:21;0.40;;;0.40;;
11986;SDS011;6053;51.382;6.768;2022-08-03T03:15:51;0.37;;;0.37;;
11986;SDS011;6053;51.382;6.768;2022-08-03T03:18:22;0.40;;;0.40;;
11986;SDS011;6053;51.382;6.768;2022-08-03T03:20:51;0.40;;;0.40;;
11986;SDS011;6053;51.382;6.768;2022-08-03T03:23:20;0.80;;;0.50;;
11986;SDS011;6053;51.382;6.768;2022-08-03T03:25:50;0.30;;;0.30;;
11986;SDS011;6053;51.382;6.768;2022-08-03T03:28:21;0.40;;;0.40;;
11986;SDS011;6053;51.382;6.768;2022-08-03T03:30:50;0.40;;;0.40;;
11986;SDS011;6053;51.382;6.768;2022-08-03T03:33:19;0.70;;;0.40;;
11986;SDS011;6053;51.382;6.768;2022-08-03T03:35:49;0.70;;;0.63;;
11986;SDS011;6053;51.382;6.768;2022-08-03T03:38:18;0.50;;;0.50;;
11986;SDS011;6053;51.382;6.768;2022-08-03T03:40:46;0.40;;;0.40;;
11986;SDS011;6053;51.382;6.768;2022-08-03T03:43:15;0.40;;;0.40;;
11986;SDS011;6053;51.382;6.768;2022-08-03T03:45:44;0.90;;;0.53;;
11986;SDS011;6053;51.382;6.768;2022-08-03T03:48:14;0.32;;;0.32;;
11986;SDS011;6053;51.382;6.768;2022-08-03T03:50:44;0.40;;;0.40;;
11986;SDS011;6053;51.382;6.768;2022-08-03T03:53:15;0.43;;;0.43;;
11986;SDS011;6053;51.382;6.768;2022-08-03T03:55:43;1.20;;;0.40;;
11986;SDS011;6053;51.382;6.768;2022-08-03T03:58:28;0.40;;;0.40;;
11986;SDS011;6053;51.382;6.768;2022-08-03T04:00:59;0.43;;;0.43;;
11986;SDS011;6053;51.382;6.768;2022-08-03T04:03:27;0.68;;;0.68;;
11986;SDS011;6053;51.382;6.768;2022-08-03T04:05:57;0.75;;;0.75;;
11986;SDS011;6053;51.382;6.768;2022-08-03T04:08:43;0.50;;;0.50;;
11986;SDS011;6053;51.382;6.768;2022-08-03T04:11:30;0.60;;;0.60;;
11986;SDS011;6053;51.382;6.768;2022-08-03T04:14:05;0.50;;;0.50;;
11986;SDS011;6053;51.382;6.768;2022-08-03T04:16:39;2.93;;;1.13;;
11986;SDS011;6053;51.382;6.768;2022-08-03T04:19:10;0.55;;;0.55;;
11986;SDS011;6053;51.382;6.768;2022-08-03T04:21:51;1.02;;;0.80;;
11986;SDS011;6053;51.382;6.768;2022-08-03T04:24:24;1.20;;;0.60;;
11986;SDS011;6053;51.382;6.768;2022-08-03T04:26:57;1.10;;;0.80;;
11986;SDS011;6053;51.382;6.768;2022-08-03T04:29:28;0.67;;;0.60;;
11986;SDS011;6053;51.382;6.768;2022-08-03T04:31:57;0.70;;;0.70;;
11986;SDS011;6053;51.382;6.768;2022-08-03T04:34:33;1.60;;;0.80;;
11986;SDS011;6053;51.382;6.768;2022-08-03T04:37:04;0.82;;;0.82;;
11986;SDS011;6053;51.382;6.768;2022-08-03T04:39:38;1.10;;;1.00;;
11986;SDS011;6053;51.382;6.768;2022-08-03T04:42:10;1.17;;;0.80;;
11986;SDS011;6053;51.382;6.768;2022-08-03T04:44:42;2.08;;;0.95;;
11986;SDS011;6053;51.382;6.768;2022-08-03T04:47:12;1.60;;;0.90;;
11986;SDS011;6053;51.382;6.768;2022-08-03T04:49:40;0.70;;;0.70;;
11986;SDS011;6053;51.382;6.768;2022-08-03T04:52:11;1.05;;;0.95;;
11986;SDS011;6053;51.382;6.768;2022-08-03T04:54:40;0.82;;;0.80;;
11986;SDS011;6053;51.382;6.768;2022-08-03T04:57:16;0.50;;;0.50;;
11986;SDS011;6053;51.382;6.768;2022-08-03T04:59:48;1.70;;;1.00;;
11986;SDS011;6053;51.382;6.768;2022-08-03T05:02:28;0.88;;;0.88;;
11986;SDS011;6053;51.382;6.768;2022-08-03T05:04:57;1.45;;;0.88;;
11986;SDS011;6053;51.382;6.768;2022-08-03T05:07:27;0.65;;;0.65;;
11986;SDS011;6053;51.382;6.768;2022-08-03T05:10:02;1.20;;;0.90;;
11986;SDS011;6053;51.382;6.768;2022-08-03T05:12:41;1.17;;;1.02;;
11986;SDS011;6053;51.382;6.768;2022-08-03T05:15:11;2.85;;;1.20;;
11986;SDS011;6053;51.382;6.768;2022-08-03T05:17:41;1.35;;;1.25;;
11986;SDS011;6053;51.382;6.768;2022-08-03T05:20:09;2.05;;;1.27;;
11986;SDS011;6053;51.382;6.768;2022-08-03T05:22:43;1.50;;;0.77;;
11986;SDS011;6053;51.382;6.768;2022-08-03T05:25:11;2.30;;;1.20;;
11986;SDS011;6053;51.382;6.768;2022-08-03T05:27:45;1.27;;;1.15;;
11986;SDS011;6053;51.382;6.768;2022-08-03T05:30:14;1.80;;;1.10;;
11986;SDS011;6053;51.382;6.768;2022-08-03T05:33:00;3.45;;;1.23;;
11986;SDS011;6053;51.382;6.768;2022-08-03T05:35:30;1.67;;;1.38;;
11986;SDS011;6053;51.382;6.768;2022-08-03T05:38:21;1.50;;;1.20;;
11986;SDS011;6053;51.382;6.768;2022-08-03T05:41:00;2.33;;;1.20;;
11986;SDS011;6053;51.382;6.768;2022-08-03T05:43:49;2.15;;;1.60;;
11986;SDS011;6053;51.382;6.768;2022-08-03T05:46:19;2.10;;;1.33;;
11986;SDS011;6053;51.382;6.768;2022-08-03T05:48:47;2.50;;;1.52;;
11986;SDS011;6053;51.382;6.768;2022-08-03T05:51:16;2.35;;;1.38;;
11986;SDS011;6053;51.382;6.768;2022-08-03T05:53:46;2.45;;;1.30;;
11986;SDS011;6053;51.382;6.768;2022-08-03T05:56:14;1.73;;;1.50;;
11986;SDS011;6053;51.382;6.768;2022-08-03T05:58:43;2.30;;;1.40;;
11986;SDS011;6053;51.382;6.768;2022-08-03T06:01:13;3.45;;;1.50;;
11986;SDS011;6053;51.382;6.768;2022-08-03T06:03:42;2.17;;;1.73;;
11986;SDS011;6053;51.382;6.768;2022-08-03T06:06:10;2.67;;;1.67;;
11986;SDS011;6053;51.382;6.768;2022-08-03T06:08:39;1.67;;;1.33;;
11986;SDS011;6053;51.382;6.768;2022-08-03T06:11:09;1.25;;;1.05;;
11986;SDS011;6053;51.382;6.768;2022-08-03T06:13:38;1.88;;;1.70;;
11986;SDS011;6053;51.382;6.768;2022-08-03T06:16:06;2.30;;;1.30;;
11986;SDS011;6053;51.382;6.768;2022-08-03T06:18:35;3.22;;;1.70;;
11986;SDS011;6053;51.382;6.768;2022-08-03T06:21:04;4.50;;;1.73;;
11986;SDS011;6053;51.382;6.768;2022-08-03T06:23:41;4.07;;;1.65;;
11986;SDS011;6053;51.382;6.768;2022-08-03T06:26:22;2.65;;;1.40;;
11986;SDS011;6053;51.382;6.768;2022-08-03T06:28:52;2.08;;;1.27;;
11986;SDS011;6053;51.382;6.768;2022-08-03T06:31:21;1.65;;;1.35;;
11986;SDS011;6053;51.382;6.768;2022-08-03T06:33:59;1.13;;;1.03;;
11986;SDS011;6053;51.382;6.768;2022-08-03T06:36:49;1.10;;;1.00;;
11986;SDS011;6053;51.382;6.768;2022-08-03T06:39:18;2.53;;;1.08;;
11986;SDS011;6053;51.382;6.768;2022-08-03T06:41:50;1.55;;;1.10;;
11986;SDS011;6053;51.382;6.768;2022-08-03T06:44:19;2.63;;;1.30;;
11986;SDS011;6053;51.382;6.768;2022-08-03T06:46:47;2.90;;;1.40;;
11986;SDS011;6053;51.382;6.768;2022-08-03T06:49:16;2.83;;;1.30;;
11986;SDS011;6053;51.382;6.768;2022-08-03T06:51:45;2.25;;;1.30;;
11986;SDS011;6053;51.382;6.768;2022-08-03T06:54:31;1.33;;;1.13;;
11986;SDS011;6053;51.382;6.768;2022-08-03T06:57:03;3.10;;;1.33;;
11986;SDS011;6053;51.382;6.768;2022-08-03T06:59:33;1.60;;;1.35;;
11986;SDS011;6053;51.382;6.768;2022-08-03T07:02:21;1.00;;;1.00;;
11986;SDS011;6053;51.382;6.768;2022-08-03T07:04:53;1.57;;;1.03;;
11986;SDS011;6053;51.382;6.768;2022-08-03T07:07:22;2.08;;;1.20;;
11986;SDS011;6053;51.382;6.768;2022-08-03T07:09:50;2.17;;;1.17;;
11986;SDS011;6053;51.382;6.768;2022-08-03T07:12:25;1.73;;;1.30;;
11986;SDS011;6053;51.382;6.768;2022-08-03T07:14:55;1.40;;;1.02;;
11986;SDS011;6053;51.382;6.768;2022-08-03T07:17:28;1.20;;;1.10;;
11986;SDS011;6053;51.382;6.768;2022-08-03T07:19:58;3.28;;;1.30;;
11986;SDS011;6053;51.382;6.768;2022-08-03T07:22:28;1.17;;;1.08;;
11986;SDS011;6053;51.382;6.768;2022-08-03T07:24:57;3.42;;;1.15;;
11986;SDS011;6053;51.382;6.768;2022-08-03T07:27:27;2.17;;;1.13;;
11986;SDS011;6053;51.382;6.768;2022-08-03T07:29:55;2.83;;;1.30;;
11986;SDS011;6053;51.382;6.768;2022-08-03T07:32:25;2.15;;;0.95;;
11986;SDS011;6053;51.382;6.768;2022-08-03T07:34:56;1.83;;;1.30;;
11986;SDS011;6053;51.382;6.768;2022-08-03T07:37:27;3.05;;;1.20;;
11986;SDS011;6053;51.382;6.768;2022-08-03T07:39:56;2.50;;;1.20;;
11986;SDS011;6053;51.382;6.768;2022-08-03T07:42:27;2.42;;;1.10;;
11986;SDS011;6053;51.382;6.768;2022-08-03T07:44:56;1.60;;;0.70;;
11986;SDS011;6053;51.382;6.768;2022-08-03T07:47:25;1.10;;;0.90;;
11986;SDS011;6053;51.382;6.768;2022-08-03T07:50:01;3.70;;;1.02;;
11986;SDS011;6053;51.382;6.768;2022-08-03T07:52:34;1.95;;;0.90;;
11986;SDS011;6053;51.382;6.768;2022-08-03T07:55:15;2.00;;;0.90;;
11986;SDS011;6053;51.382;6.768;2022-08-03T07:57:46;0.50;;;0.50;;
11986;SDS011;6053;51.382;6.768;2022-08-03T08:00:25;2.22;;;0.98;;
11986;SDS011;6053;51.382;6.768;2022-08-03T08:02:53;1.80;;;0.85;;
11986;SDS011;6053;51.382;6.768;2022-08-03T08:05:21;3.10;;;1.00;;
11986;SDS011;6053;51.382;6.768;2022-08-03T08:07:49;1.40;;;0.88;;
11986;SDS011;6053;51.382;6.768;2022-08-03T08:10:18;2.47;;;1.00;;
11986;SDS011;6053;51.382;6.768;2022-08-03T08:12:47;0.70;;;0.70;;
11986;SDS011;6053;51.382;6.768;2022-08-03T08:15:16;1.10;;;0.80;;
11986;SDS011;6053;51.382;6.768;2022-08-03T08:17:45;1.25;;;0.90;;
11986;SDS011;6053;51.382;6.768;2022-08-03T08:20:15;0.97;;;0.83;;
11986;SDS011;6053;51.382;6.768;2022-08-03T08:22:56;1.10;;;0.93;;
11986;SDS011;6053;51.382;6.768;2022-08-03T08:25:27;2.67;;;0.82;;
11986;SDS011;6053;51.382;6.768;2022-08-03T08:27:58;2.10;;;0.70;;
11986;SDS011;6053;51.382;6.768;2022-08-03T08:30:48;1.80;;;0.90;;
11986;SDS011;6053;51.382;6.768;2022-08-03T08:33:17;2.25;;;0.98;;
11986;SDS011;6053;51.382;6.768;2022-08-03T08:35:49;4.63;;;0.93;;
11986;SDS011;6053;51.382;6.768;2022-08-03T08:38:19;1.55;;;0.70;;
11986;SDS011;6053;51.382;6.768;2022-08-03T08:40:49;2.50;;;0.80;;
11986;SDS011;6053;51.382;6.768;2022-08-03T08:43:18;2.35;;;0.95;;
11986;SDS011;6053;51.382;6.768;2022-08-03T08:45:48;2.55;;;0.70;;
11986;SDS011;6053;51.382;6.768;2022-08-03T08:48:17;3.90;;;1.00;;
11986;SDS011;6053;51.382;6.768;2022-08-03T08:50:52;2.63;;;0.90;;
11986;SDS011;6053;51.382;6.768;2022-08-03T08:53:23;2.85;;;0.70;;
11986;SDS011;6053;51.382;6.768;2022-08-03T08:55:57;1.40;;;0.52;;
11986;SDS011;6053;51.382;6.768;2022-08-03T08:58:29;0.90;;;0.63;;
11986;SDS011;6053;51.382;6.768;2022-08-03T09:01:04;2.65;;;0.93;;
11986;SDS011;6053;51.382;6.768;2022-08-03T09:03:32;2.13;;;0.70;;
11986;SDS011;6053;51.382;6.768;2022-08-03T09:06:01;0.70;;;0.50;;
11986;SDS011;6053;51.382;6.768;2022-08-03T09:08:31;1.38;;;0.90;;
11986;SDS011;6053;51.382;6.768;2022-08-03T09:10:59;0.70;;;0.50;;
11986;SDS011;6053;51.382;6.768;2022-08-03T09:13:29;1.40;;;0.82;;
11986;SDS011;6053;51.382;6.768;2022-08-03T09:16:09;0.40;;;0.40;;
11986;SDS011;6053;51.382;6.768;2022-08-03T09:18:41;1.13;;;0.77;;
11986;SDS011;6053;51.382;6.768;2022-08-03T09:21:15;1.80;;;0.80;;
11986;SDS011;6053;51.382;6.768;2022-08-03T09:23:59;1.55;;;0.90;;
11986;SDS011;6053;51.382;6.768;2022-08-03T09:26:36;1.73;;;0.90;;
11986;SDS011;6053;51.382;6.768;2022-08-03T09:29:07;1.75;;;0.73;;
11986;SDS011;6053;51.382;6.768;2022-08-03T09:31:41;1.10;;;0.60;;
11986;SDS011;6053;51.382;6.768;2022-08-03T09:34:13;1.85;;;0.70;;
11986;SDS011;6053;51.382;6.768;2022-08-03T09:36:43;1.92;;;0.57;;
11986;SDS011;6053;51.382;6.768;2022-08-03T09:39:14;2.15;;;0.50;;
11986;SDS011;6053;51.382;6.768;2022-08-03T09:41:45;1.50;;;0.50;;
11986;SDS011;6053;51.382;6.768;2022-08-03T09:44:15;1.15;;;0.70;;
11986;SDS011;6053;51.382;6.768;2022-08-03T09:46:52;3.30;;;0.80;;
11986;SDS011;6053;51.382;6.768;2022-08-03T09:49:22;3.08;;;0.80;;
11986;SDS011;6053;51.382;6.768;2022-08-03T09:51:51;1.25;;;0.70;;
11986;SDS011;6053;51.382;6.768;2022-08-03T09:54:40;2.00;;;0.70;;
11986;SDS011;6053;51.382;6.768;2022-08-03T09:57:19;1.58;;;0.60;;
11986;SDS011;6053;51.382;6.768;2022-08-03T09:59:50;2.40;;;0.65;;
11986;SDS011;6053;51.382;6.768;2022-08-03T10:02:31;1.20;;;0.33;;
11986;SDS011;6053;51.382;6.768;2022-08-03T10:04:59;1.80;;;0.43;;
11986;SDS011;6053;51.382;6.768;2022-08-03T10:07:28;0.30;;;0.30;;
11986;SDS011;6053;51.382;6.768;2022-08-03T10:09:56;0.95;;;0.28;;
11986;SDS011;6053;51.382;6.768;2022-08-03T10:12:46;1.00;;;0.28;;
11986;SDS011;6053;51.382;6.768;2022-08-03T10:15:17;1.05;;;0.60;;
11986;SDS011;6053;51.382;6.768;2022-08-03T10:18:05;2.50;;;0.80;;
11986;SDS011;6053;51.382;6.768;2022-08-03T10:20:35;1.70;;;0.88;;
11986;SDS011;6053;51.382;6.768;2022-08-03T10:23:07;1.25;;;0.47;;
11986;SDS011;6053;51.382;6.768;2022-08-03T10:25:37;0.43;;;0.43;;
11986;SDS011;6053;51.382;6.768;2022-08-03T10:28:09;0.40;;;0.40;;
11986;SDS011;6053;51.382;6.768;2022-08-03T10:30:47;1.88;;;0.60;;
11986;SDS011;6053;51.382;6.768;2022-08-03T10:33:19;1.40;;;0.50;;
11986;SDS011;6053;51.382;6.768;2022-08-03T10:36:13;1.10;;;0.75;;
11986;SDS011;6053;51.382;6.768;2022-08-03T10:38:43;2.15;;;0.47;;
11986;SDS011;6053;51.382;6.768;2022-08-03T10:41:18;1.08;;;0.57;;
11986;SDS011;6053;51.382;6.768;2022-08-03T10:43:49;3.35;;;0.50;;
11986;SDS011;6053;51.382;6.768;2022-08-03T10:46:26;1.50;;;0.60;;
11986;SDS011;6053;51.382;6.768;2022-08-03T10:48:55;0.80;;;0.60;;
11986;SDS011;6053;51.382;6.768;2022-08-03T10:51:24;1.67;;;0.65;;
11986;SDS011;6053;51.382;6.768;2022-08-03T10:53:57;0.80;;;0.50;;
11986;SDS011;6053;51.382;6.768;2022-08-03T10:56:36;2.33;;;0.40;;
11986;SDS011;6053;51.382;6.768;2022-08-03T10:59:58;1.20;;;0.70;;
11986;SDS011;6053;51.382;6.768;2022-08-03T11:05:37;2.20;;;0.52;;
11986;SDS011;6053;51.382;6.768;2022-08-03T11:08:22;0.70;;;0.50;;
11986;SDS011;6053;51.382;6.768;2022-08-03T11:10:57;1.40;;;0.33;;
11986;SDS011;6053;51.382;6.768;2022-08-03T11:13:28;0.85;;;0.50;;
11986;SDS011;6053;51.382;6.768;2022-08-03T11:16:00;2.25;;;0.50;;
11986;SDS011;6053;51.382;6.768;2022-08-03T11:18:55;1.35;;;0.30;;
11986;SDS011;6053;51.382;6.768;2022-08-03T11:27:24;1.80;;;0.60;;
11986;SDS011;6053;51.382;6.768;2022-08-03T11:30:03;1.00;;;0.60;;
11986;SDS011;6053;51.382;6.768;2022-08-03T11:32:51;0.77;;;0.37;;
11986;SDS011;6053;51.382;6.768;2022-08-03T11:35:25;1.33;;;0.30;;
11986;SDS011;6053;51.382;6.768;2022-08-03T11:38:05;1.55;;;0.47;;
11986;SDS011;6053;51.382;6.768;2022-08-03T11:40:38;1.50;;;0.40;;
11986;SDS011;6053;51.382;6.768;2022-08-03T11:43:10;1.10;;;0.40;;
11986;SDS011;6053;51.382;6.768;2022-08-03T11:46:13;1.35;;;0.43;;
11986;SDS011;6053;51.382;6.768;2022-08-03T11:48:54;0.97;;;0.37;;
11986;SDS011;6053;51.382;6.768;2022-08-03T11:51:37;1.50;;;0.50;;
11986;SDS011;6053;51.382;6.768;2022-08-03T11:54:06;1.50;;;0.40;;
11986;SDS011;6053;51.382;6.768;2022-08-03T11:56:44;1.15;;;0.20;;
11986;SDS011;6053;51.382;6.768;2022-08-03T11:59:14;2.83;;;0.85;;
11986;SDS011;6053;51.382;6.768;2022-08-03T12:01:47;1.27;;;0.60;;
11986;SDS011;6053;51.382;6.768;2022-08-03T12:04:16;1.53;;;0.57;;
11986;SDS011;6053;51.382;6.768;2022-08-03T12:06:58;1.10;;;0.20;;
11986;SDS011;6053;51.382;6.768;2022-08-03T12:09:26;1.40;;;0.30;;
11986;SDS011;6053;51.382;6.768;2022-08-03T12:11:55;1.98;;;0.50;;
11986;SDS011;6053;51.382;6.768;2022-08-03T12:14:26;0.75;;;0.30;;
11986;SDS011;6053;51.382;6.768;2022-08-03T12:17:15;0.40;;;0.40;;
11986;SDS011;6053;51.382;6.768;2022-08-03T12:19:44;2.30;;;0.70;;
11986;SDS011;6053;51.382;6.768;2022-08-03T12:22:14;1.27;;;0.68;;
11986;SDS011;6053;51.382;6.768;2022-08-03T12:24:43;2.22;;;0.70;;
11986;SDS011;6053;51.382;6.768;2022-08-03T12:27:21;1.65;;;0.52;;
11986;SDS011;6053;51.382;6.768;2022-08-03T12:29:51;0.80;;;0.20;;
11986;SDS011;6053;51.382;6.768;2022-08-03T12:32:24;0.55;;;0.43;;
11986;SDS011;6053;51.382;6.768;2022-08-03T12:34:53;1.00;;;0.40;;
11986;SDS011;6053;51.382;6.768;2022-08-03T12:37:28;0.40;;;0.30;;
11986;SDS011;6053;51.382;6.768;2022-08-03T12:39:58;0.73;;;0.57;;
11986;SDS011;6053;51.382;6.768;2022-08-03T12:45:16;4.93;;;1.40;;
11986;SDS011;6053;51.382;6.768;2022-08-03T12:47:50;0.77;;;0.47;;
11986;SDS011;6053;51.382;6.768;2022-08-03T12:50:24;0.77;;;0.63;;
11986;SDS011;6053;51.382;6.768;2022-08-03T12:52:56;1.50;;;0.50;;
11986;SDS011;6053;51.382;6.768;2022-08-03T12:55:25;1.38;;;0.60;;
11986;SDS011;6053;51.382;6.768;2022-08-03T12:58:27;1.20;;;0.60;;
11986;SDS011;6053;51.382;6.768;2022-08-03T13:01:00;2.27;;;0.47;;
11986;SDS011;6053;51.382;6.768;2022-08-03T13:03:38;1.07;;;0.20;;
11986;SDS011;6053;51.382;6.768;2022-08-03T13:06:11;2.13;;;0.50;;
11986;SDS011;6053;51.382;6.768;2022-08-03T13:08:42;2.50;;;0.70;;
11986;SDS011;6053;51.382;6.768;2022-08-03T13:11:16;1.67;;;0.40;;
11986;SDS011;6053;51.382;6.768;2022-08-03T13:14:09;1.40;;;0.47;;
11986;SDS011;6053;51.382;6.768;2022-08-03T13:16:45;1.02;;;0.50;;
11986;SDS011;6053;51.382;6.768;2022-08-03T13:19:13;1.13;;;0.70;;
11986;SDS011;6053;51.382;6.768;2022-08-03T13:21:41;1.55;;;0.30;;
11986;SDS011;6053;51.382;6.768;2022-08-03T13:24:31;0.68;;;0.47;;
11986;SDS011;6053;51.382;6.768;2022-08-03T13:27:00;1.60;;;0.30;;
11986;SDS011;6053;51.382;6.768;2022-08-03T13:29:50;0.50;;;0.50;;
11986;SDS011;6053;51.382;6.768;2022-08-03T13:32:19;0.20;;;0.20;;
11986;SDS011;6053;51.382;6.768;2022-08-03T13:34:48;2.42;;;0.93;;
11986;SDS011;6053;51.382;6.768;2022-08-03T13:37:16;1.17;;;0.60;;
11986;SDS011;6053;51.382;6.768;2022-08-03T13:39:46;0.55;;;0.30;;
11986;SDS011;6053;51.382;6.768;2022-08-03T13:42:25;1.27;;;0.47;;
11986;SDS011;6053;51.382;6.768;2022-08-03T13:44:55;0.63;;;0.40;;
11986;SDS011;6053;51.382;6.768;2022-08-03T13:47:24;1.00;;;0.30;;
11986;SDS011;6053;51.382;6.768;2022-08-03T13:49:53;1.30;;;0.55;;
11986;SDS011;6053;51.382;6.768;2022-08-03T13:52:27;1.95;;;0.50;;
11986;SDS011;6053;51.382;6.768;2022-08-03T13:54:59;1.93;;;0.50;;
11986;SDS011;6053;51.382;6.768;2022-08-03T13:57:28;1.27;;;0.73;;
11986;SDS011;6053;51.382;6.768;2022-08-03T14:00:16;3.43;;;1.20;;
11986;SDS011;6053;51.382;6.768;2022-08-03T14:02:57;1.83;;;0.60;;
11986;SDS011;6053;51.382;6.768;2022-08-03T14:05:39;2.70;;;0.60;;
11986;SDS011;6053;51.382;6.768;2022-08-03T14:08:08;1.00;;;0.30;;
11986;SDS011;6053;51.382;6.768;2022-08-03T14:10:39;1.08;;;0.40;;
11986;SDS011;6053;51.382;6.768;2022-08-03T14:13:09;0.80;;;0.20;;
11986;SDS011;6053;51.382;6.768;2022-08-03T14:15:43;1.27;;;0.32;;
11986;SDS011;6053;51.382;6.768;2022-08-03T14:18:16;2.75;;;0.55;;
11986;SDS011;6053;51.382;6.768;2022-08-03T14:20:59;0.97;;;0.27;;
11986;SDS011;6053;51.382;6.768;2022-08-03T14:23:33;0.87;;;0.30;;
11986;SDS011;6053;51.382;6.768;2022-08-03T14:26:04;0.60;;;0.25;;
11986;SDS011;6053;51.382;6.768;2022-08-03T14:28:34;1.17;;;0.20;;
11986;SDS011;6053;51.382;6.768;2022-08-03T14:31:03;1.75;;;0.50;;
11986;SDS011;6053;51.382;6.768;2022-08-03T14:33:41;1.00;;;0.20;;
11986;SDS011;6053;51.382;6.768;2022-08-03T14:36:09;0.10;;;0.10;;
11986;SDS011;6053;51.382;6.768;2022-08-03T14:38:37;1.50;;;0.30;;
11986;SDS011;6053;51.382;6.768;2022-08-03T14:41:07;1.80;;;0.40;;
11986;SDS011;6053;51.382;6.768;2022-08-03T14:43:45;0.45;;;0.20;;
11986;SDS011;6053;51.382;6.768;2022-08-03T14:46:27;0.70;;;0.30;;
11986;SDS011;6053;51.382;6.768;2022-08-03T14:48:57;1.08;;;0.10;;
11986;SDS011;6053;51.382;6.768;2022-08-03T14:51:45;0.30;;;0.30;;
11986;SDS011;6053;51.382;6.768;2022-08-03T14:54:19;0.70;;;0.40;;
11986;SDS011;6053;51.382;6.768;2022-08-03T14:56:49;1.00;;;0.30;;
11986;SDS011;6053;51.382;6.768;2022-08-03T14:59:17;0.10;;;0.10;;
11986;SDS011;6053;51.382;6.768;2022-08-03T15:01:45;0.68;;;0.17;;
11986;SDS011;6053;51.382;6.768;2022-08-03T15:04:32;0.70;;;0.20;;
11986;SDS011;6053;51.382;6.768;2022-08-03T15:07:01;0.52;;;0.40;;
11986;SDS011;6053;51.382;6.768;2022-08-03T15:09:29;1.03;;;0.27;;
11986;SDS011;6053;51.382;6.768;2022-08-03T15:11:59;0.10;;;0.10;;
11986;SDS011;6053;51.382;6.768;2022-08-03T15:14:27;0.05;;;0.05;;
11986;SDS011;6053;51.382;6.768;2022-08-03T15:17:00;1.10;;;0.20;;
11986;SDS011;6053;51.382;6.768;2022-08-03T15:19:28;0.28;;;0.10;;
11986;SDS011;6053;51.382;6.768;2022-08-03T15:22:16;0.43;;;0.20;;
11986;SDS011;6053;51.382;6.768;2022-08-03T15:24:50;0.30;;;0.20;;
11986;SDS011;6053;51.382;6.768;2022-08-03T15:27:20;0.30;;;0.20;;
11986;SDS011;6053;51.382;6.768;2022-08-03T15:29:48;1.40;;;0.35;;
11986;SDS011;6053;51.382;6.768;2022-08-03T15:32:35;0.28;;;0.13;;
11986;SDS011;6053;51.382;6.768;2022-08-03T15:35:04;0.20;;;0.20;;
11986;SDS011;6053;51.382;6.768;2022-08-03T15:37:32;0.15;;;0.15;;
11986;SDS011;6053;51.382;6.768;2022-08-03T15:40:01;1.10;;;0.20;;
11986;SDS011;6053;51.382;6.768;2022-08-03T15:42:31;0.40;;;0.20;;
11986;SDS011;6053;51.382;6.768;2022-08-03T15:45:00;0.25;;;0.20;;
11986;SDS011;6053;51.382;6.768;2022-08-03T15:47:29;0.57;;;0.30;;
11986;SDS011;6053;51.382;6.768;2022-08-03T15:49:57;1.60;;;0.30;;